createdAt,value
2017-08-04T00:00:13.261Z,95450.29
2017-08-04T00:02:41.992Z,95450.02
2017-08-04T00:05:10.636Z,95455.22
2017-08-04T00:07:38.252Z,95451.20
2017-08-04T00:10:05.883Z,95454.86
2017-08-04T00:12:33.531Z,95457.55
2017-08-04T00:15:01.154Z,95463.19
2017-08-04T00:17:29.405Z,95478.34
2017-08-04T00:19:59.503Z,95474.83
2017-08-04T00:22:28.292Z,95471.16
2017-08-04T00:24:58.130Z,95472.45
2017-08-04T00:27:25.924Z,95473.84
2017-08-04T00:29:53.580Z,95476.91
2017-08-04T00:32:21.246Z,95479.83
2017-08-04T00:34:48.857Z,95480.45
2017-08-04T00:37:17.253Z,95476.09
2017-08-04T00:39:46.768Z,95486.33
2017-08-04T00:42:14.414Z,95482.00
2017-08-04T00:44:42.941Z,95483.08
2017-08-04T00:47:12.135Z,95475.88
2017-08-04T00:49:39.780Z,95475.45
2017-08-04T00:52:07.454Z,95470.59
2017-08-04T00:54:36.237Z,95474.16
2017-08-04T00:57:04.291Z,95481.13
2017-08-04T00:59:34.376Z,95477.77
2017-08-04T01:02:04.380Z,95479.88
2017-08-04T01:04:32.037Z,95471.67
2017-08-04T01:06:59.640Z,95475.14
2017-08-04T01:09:28.675Z,95471.50
2017-08-04T01:11:58.020Z,95472.45
2017-08-04T01:14:25.602Z,95466.55
2017-08-04T01:16:53.229Z,95473.70
2017-08-04T01:19:21.295Z,95469.89
2017-08-04T01:21:48.910Z,95471.95
2017-08-04T01:24:17.350Z,95470.35
2017-08-04T01:26:46.784Z,95470.31
2017-08-04T01:29:14.425Z,95470.11
2017-08-04T01:31:42.256Z,95465.78
2017-08-04T01:34:09.841Z,95464.16
2017-08-04T01:36:38.442Z,95460.59
2017-08-04T01:39:06.889Z,95474.39
2017-08-04T01:41:34.465Z,95467.28
2017-08-04T01:44:02.066Z,95466.86
2017-08-04T01:46:31.133Z,95468.59
2017-08-04T01:48:59.399Z,95470.37
2017-08-04T01:51:28.255Z,95475.97
2017-08-04T01:53:57.574Z,95483.64
2017-08-04T01:56:25.371Z,95480.48
2017-08-04T01:58:53.462Z,95477.84
2017-08-04T02:01:21.871Z,95478.95
2017-08-04T02:03:50.285Z,95482.89
2017-08-04T02:06:20.111Z,95490.41
2017-08-04T02:08:49.595Z,95482.72
2017-08-04T02:11:18.161Z,95485.12
2017-08-04T02:13:45.799Z,95485.07
2017-08-04T02:16:14.189Z,95489.75
2017-08-04T02:18:41.816Z,95483.16
2017-08-04T02:21:09.766Z,95485.76
2017-08-04T02:23:37.384Z,95483.72
2017-08-04T02:26:06.387Z,95484.12
2017-08-04T02:28:35.070Z,95486.59
2017-08-04T02:31:03.643Z,95488.47
2017-08-04T02:33:32.264Z,95487.48
2017-08-04T02:35:59.883Z,95483.94
2017-08-04T02:38:27.599Z,95484.02
2017-08-04T02:40:56.039Z,95486.94
2017-08-04T02:43:24.608Z,95484.33
2017-08-04T02:45:53.196Z,95487.57
2017-08-04T02:48:21.808Z,95483.25
2017-08-04T02:50:49.451Z,95484.77
2017-08-04T02:53:17.598Z,95487.66
2017-08-04T02:55:45.622Z,95483.42
2017-08-04T02:58:14.013Z,95492.34
2017-08-04T03:00:43.031Z,95492.24
2017-08-04T03:03:11.924Z,95493.84
2017-08-04T03:05:41.092Z,95499.14
2017-08-04T03:08:09.424Z,95490.17
2017-08-04T03:10:36.974Z,95484.97
2017-08-04T03:13:05.417Z,95485.80
2017-08-04T03:15:34.459Z,95486.35
2017-08-04T03:18:02.069Z,95481.28
2017-08-04T03:20:29.674Z,95490.23
2017-08-04T03:22:57.299Z,95484.83
2017-08-04T03:25:24.951Z,95488.58
2017-08-04T03:27:52.525Z,95494.71
2017-08-04T03:30:20.172Z,95502.87
2017-08-04T03:32:47.798Z,95497.77
2017-08-04T03:35:16.932Z,95496.85
2017-08-04T03:37:45.447Z,95491.09
2017-08-04T03:40:13.222Z,95497.81
2017-08-04T03:42:40.840Z,95489.41
2017-08-04T03:45:08.462Z,95496.45
2017-08-04T03:47:36.746Z,95497.55
2017-08-04T03:50:05.150Z,95495.83
2017-08-04T03:52:33.647Z,95496.45
2017-08-04T03:55:02.087Z,95494.00
2017-08-04T03:57:30.541Z,95505.07
2017-08-04T03:59:58.181Z,95497.29
2017-08-04T04:02:25.817Z,95498.76
2017-08-04T04:04:53.457Z,95498.23
2017-08-04T04:07:21.173Z,95496.75
2017-08-04T04:09:48.907Z,95499.50
2017-08-04T04:12:16.510Z,95506.44
2017-08-04T04:14:44.623Z,95501.90
2017-08-04T04:17:12.239Z,95495.77
2017-08-04T04:19:39.831Z,95499.03
2017-08-04T04:22:07.946Z,95499.84
2017-08-04T04:24:36.291Z,95504.28
2017-08-04T04:27:05.190Z,95495.96
2017-08-04T04:29:33.506Z,95497.92
2017-08-04T04:32:02.428Z,95496.53
2017-08-04T04:34:30.411Z,95498.38
2017-08-04T04:36:58.049Z,95498.23
2017-08-04T04:39:26.556Z,95504.19
2017-08-04T04:41:56.298Z,95499.98
2017-08-04T04:44:24.032Z,95499.95
2017-08-04T04:46:51.718Z,95500.93
2017-08-04T04:49:19.344Z,95501.14
2017-08-04T04:51:46.914Z,95506.66
2017-08-04T04:54:14.579Z,95502.30
2017-08-04T04:56:42.249Z,95506.63
2017-08-04T05:01:41.676Z,95508.30
2017-08-04T05:07:31.089Z,95509.69
2017-08-04T05:09:58.804Z,95513.84
2017-08-04T05:12:26.457Z,95518.25
2017-08-04T05:14:54.189Z,95517.85
2017-08-04T05:17:21.896Z,95530.89
2017-08-04T05:19:49.639Z,95527.58
2017-08-04T05:22:17.360Z,95525.41
2017-08-04T05:24:45.131Z,95529.92
2017-08-04T05:27:12.799Z,95531.84
2017-08-04T05:29:40.451Z,95537.69
2017-08-04T05:32:08.766Z,95545.84
2017-08-04T05:34:36.443Z,95548.16
2017-08-04T05:37:04.139Z,95547.05
2017-08-04T05:39:31.872Z,95545.58
2017-08-04T05:41:59.512Z,95555.08
2017-08-04T05:44:27.193Z,95565.75
2017-08-04T05:46:54.988Z,95558.27
2017-08-04T05:49:22.659Z,95559.26
2017-08-04T05:51:50.421Z,95554.99
2017-08-04T05:54:18.415Z,95554.66
2017-08-04T05:56:46.276Z,95554.28
2017-08-04T05:59:13.987Z,95557.57
2017-08-04T06:01:41.692Z,95563.61
2017-08-04T06:04:09.384Z,95562.45
2017-08-04T06:06:37.180Z,95563.66
2017-08-04T06:09:04.917Z,95566.91
2017-08-04T06:11:33.315Z,95561.23
2017-08-04T06:14:01.045Z,95552.92
2017-08-04T06:16:28.809Z,95548.91
2017-08-04T06:18:56.488Z,95544.82
2017-08-04T06:21:24.139Z,95543.36
2017-08-04T06:23:51.816Z,95550.65
2017-08-04T06:26:19.442Z,95545.13
2017-08-04T06:28:47.183Z,95545.34
2017-08-04T06:31:14.952Z,95545.34
2017-08-04T06:33:42.629Z,95549.95
2017-08-04T06:36:10.502Z,95537.14
2017-08-04T06:38:38.229Z,95530.35
2017-08-04T06:41:05.915Z,95521.59
2017-08-04T06:43:33.647Z,95524.92
2017-08-04T06:46:01.349Z,95521.64
2017-08-04T06:52:01.727Z,95509.41
2017-08-04T06:54:41.046Z,95512.91
2017-08-04T06:57:09.549Z,95509.41
2017-08-04T06:59:37.179Z,95502.75
2017-08-04T07:02:04.919Z,95513.80
2017-08-04T07:04:33.513Z,95508.08
2017-08-04T07:07:01.217Z,95502.03
2017-08-04T07:09:28.931Z,95506.20
2017-08-04T07:11:56.646Z,95512.02
2017-08-04T07:14:25.044Z,95504.00
2017-08-04T07:16:52.784Z,95506.06
2017-08-04T07:19:20.509Z,95504.50
2017-08-04T07:21:48.181Z,95514.15
2017-08-04T07:24:15.877Z,95510.78
2017-08-04T07:26:43.645Z,95498.59
2017-08-04T07:29:11.321Z,95506.36
2017-08-04T07:31:39.169Z,95507.25
2017-08-04T07:34:06.888Z,95510.17
2017-08-04T07:36:34.581Z,95499.80
2017-08-04T07:39:02.319Z,95500.58
2017-08-04T07:41:30.023Z,95494.12
2017-08-04T07:43:57.724Z,95498.66
2017-08-04T07:46:25.394Z,95497.66
2017-08-04T07:48:53.158Z,95504.30
2017-08-04T07:51:24.782Z,95503.69
2017-08-04T07:53:52.564Z,95503.39
2017-08-04T07:56:20.224Z,95498.45
2017-08-04T07:58:48.065Z,95498.12
2017-08-04T08:01:15.782Z,95499.69
2017-08-04T08:03:43.471Z,95504.42
2017-08-04T08:06:11.153Z,95505.88
2017-08-04T08:08:38.843Z,95503.52
2017-08-04T08:11:06.496Z,95509.22
2017-08-04T08:13:34.163Z,95505.13
2017-08-04T08:16:02.622Z,95504.92
2017-08-04T08:18:30.360Z,95500.59
2017-08-04T08:20:58.018Z,95508.30
2017-08-04T08:23:25.670Z,95502.22
2017-08-04T08:25:53.316Z,95502.30
2017-08-04T08:28:20.975Z,95498.54
2017-08-04T08:30:50.443Z,95490.44
2017-08-04T08:33:18.180Z,95488.53
2017-08-04T08:35:45.863Z,95482.20
2017-08-04T08:38:13.565Z,95486.15
2017-08-04T08:40:41.230Z,95483.22
2017-08-04T08:43:09.875Z,95478.70
2017-08-04T08:45:40.769Z,95477.72
2017-08-04T08:48:09.370Z,95470.34
2017-08-04T08:50:37.027Z,95467.09
2017-08-04T08:53:04.740Z,95467.77
2017-08-04T08:55:32.387Z,95462.22
2017-08-04T08:58:00.097Z,95457.44
2017-08-04T09:00:27.797Z,95459.19
2017-08-04T09:02:55.708Z,95458.87
2017-08-04T09:05:23.368Z,95450.81
2017-08-04T09:07:51.045Z,95455.18
2017-08-04T09:10:18.693Z,95449.39
2017-08-04T09:12:46.811Z,95444.66
2017-08-04T09:15:14.520Z,95445.28
2017-08-04T09:17:42.156Z,95443.47
2017-08-04T09:20:09.830Z,95442.91
2017-08-04T09:22:37.538Z,95436.15
2017-08-04T09:25:05.228Z,95423.92
2017-08-04T09:27:34.634Z,95436.78
2017-08-04T09:30:02.384Z,95429.47
2017-08-04T09:32:30.133Z,95428.39
2017-08-04T09:34:57.793Z,95417.22
2017-08-04T09:37:25.563Z,95421.86
2017-08-04T09:39:53.269Z,95418.03
2017-08-04T09:42:20.989Z,95417.06
2017-08-04T09:44:48.759Z,95411.41
2017-08-04T09:47:16.460Z,95417.69
2017-08-04T09:49:44.087Z,95419.33
2017-08-04T09:52:11.772Z,95412.16
2017-08-04T09:54:39.808Z,95409.66
2017-08-04T09:57:07.424Z,95417.95
2017-08-04T09:59:39.531Z,95410.36
2017-08-04T10:02:07.324Z,95412.83
2017-08-04T10:04:34.966Z,95400.06
2017-08-04T10:07:03.636Z,95406.39
2017-08-04T10:09:31.371Z,95408.22
2017-08-04T10:11:59.007Z,95405.16
2017-08-04T10:14:26.755Z,95404.65
2017-08-04T10:16:54.512Z,95391.89
2017-08-04T10:19:22.173Z,95403.44
2017-08-04T10:21:49.943Z,95395.80
2017-08-04T10:24:17.701Z,95396.48
2017-08-04T10:26:47.270Z,95399.58
2017-08-04T10:29:14.997Z,95389.86
2017-08-04T10:31:42.670Z,95381.63
2017-08-04T10:34:10.363Z,95387.36
2017-08-04T10:36:38.117Z,95372.27
2017-08-04T10:39:06.203Z,95378.79
2017-08-04T10:41:33.961Z,95378.83
2017-08-04T10:44:01.604Z,95368.34
2017-08-04T10:46:29.281Z,95367.02
2017-08-04T10:48:57.984Z,95364.23
2017-08-04T10:51:25.749Z,95370.84
2017-08-04T10:53:53.481Z,95361.48
2017-08-04T10:56:22.026Z,95364.30
2017-08-04T10:58:49.935Z,95358.81
2017-08-04T11:01:18.894Z,95349.97
2017-08-04T11:03:46.569Z,95359.41
2017-08-04T11:06:14.266Z,95349.77
2017-08-04T11:08:42.027Z,95348.55
2017-08-04T11:11:09.701Z,95346.41
2017-08-04T11:13:37.330Z,95343.58
2017-08-04T11:16:05.041Z,95358.37
2017-08-04T11:18:32.711Z,95349.20
2017-08-04T11:21:00.444Z,95335.23
2017-08-04T11:23:28.148Z,95332.95
2017-08-04T11:25:55.951Z,95328.86
2017-08-04T11:28:23.566Z,95327.45
2017-08-04T11:30:51.248Z,95330.17
2017-08-04T11:33:18.886Z,95325.98
2017-08-04T11:35:46.537Z,95322.92
2017-08-04T11:38:14.283Z,95316.44
2017-08-04T11:40:41.928Z,95326.02
2017-08-04T11:43:09.569Z,95325.13
2017-08-04T11:45:37.199Z,95322.72
2017-08-04T11:48:04.893Z,95315.84
2017-08-04T11:50:32.595Z,95302.53
2017-08-04T11:53:00.216Z,95303.46
2017-08-04T11:55:29.149Z,95302.00
2017-08-04T11:57:56.864Z,95307.10
2017-08-04T12:00:24.556Z,95310.45
2017-08-04T12:02:52.224Z,95299.73
2017-08-04T12:05:19.834Z,95302.55
2017-08-04T12:07:47.572Z,95292.83
2017-08-04T12:10:15.200Z,95292.75
2017-08-04T12:12:42.892Z,95289.48
2017-08-04T12:15:10.572Z,95274.30
2017-08-04T12:17:38.230Z,95275.87
2017-08-04T12:20:05.850Z,95272.75
2017-08-04T12:22:33.491Z,95265.70
2017-08-04T12:25:01.141Z,95268.54
2017-08-04T12:27:28.786Z,95258.05
2017-08-04T12:29:56.403Z,95263.25
2017-08-04T12:32:24.123Z,95249.57
2017-08-04T12:34:51.814Z,95256.36
2017-08-04T12:37:19.464Z,95257.66
2017-08-04T12:39:48.436Z,95264.12
2017-08-04T12:42:16.158Z,95255.59
2017-08-04T12:44:43.844Z,95255.83
2017-08-04T12:47:12.288Z,95253.44
2017-08-04T12:49:39.931Z,95241.28
2017-08-04T12:52:07.669Z,95245.28
2017-08-04T12:54:35.336Z,95239.61
2017-08-04T12:57:02.987Z,95245.13
2017-08-04T12:59:30.712Z,95228.77
2017-08-04T13:01:58.465Z,95237.20
2017-08-04T13:04:26.090Z,95231.64
2017-08-04T13:06:53.742Z,95223.73
2017-08-04T13:09:22.176Z,95223.08
2017-08-04T13:11:50.028Z,95222.95
2017-08-04T13:14:17.658Z,95213.42
2017-08-04T13:16:45.366Z,95211.42
2017-08-04T13:19:13.020Z,95216.65
2017-08-04T13:21:40.721Z,95218.80
2017-08-04T13:24:08.396Z,95208.55
2017-08-04T13:26:36.058Z,95205.10
2017-08-04T13:29:03.713Z,95201.94
2017-08-04T13:31:32.348Z,95203.59
2017-08-04T13:34:00.057Z,95199.64
2017-08-04T13:36:27.718Z,95197.66
2017-08-04T13:38:58.048Z,95193.44
2017-08-04T13:41:25.699Z,95188.92
2017-08-04T13:43:54.162Z,95195.70
2017-08-04T13:46:21.970Z,95193.03
2017-08-04T13:48:50.376Z,95184.95
2017-08-04T13:51:18.368Z,95184.70
2017-08-04T13:53:46.081Z,95184.70
2017-08-04T13:56:13.745Z,95182.63
2017-08-04T13:58:41.400Z,95189.03
2017-08-04T14:01:09.096Z,95183.46
2017-08-04T14:03:36.780Z,95189.85
2017-08-04T14:06:12.115Z,95188.00
2017-08-04T14:08:39.892Z,95200.30
2017-08-04T14:11:07.504Z,95188.36
2017-08-04T14:13:35.210Z,95180.77
2017-08-04T14:16:02.832Z,95183.39
2017-08-04T14:18:30.508Z,95173.05
2017-08-04T14:20:58.533Z,95184.61
2017-08-04T14:23:26.213Z,95175.52
2017-08-04T14:25:54.519Z,95178.72
2017-08-04T14:28:22.237Z,95168.98
2017-08-04T14:30:50.863Z,95166.78
2017-08-04T14:33:18.632Z,95165.49
2017-08-04T14:35:46.263Z,95169.72
2017-08-04T14:38:13.907Z,95166.89
2017-08-04T14:40:41.544Z,95169.05
2017-08-04T14:43:09.207Z,95161.69
2017-08-04T14:45:36.843Z,95164.14
2017-08-04T14:48:04.839Z,95166.32
2017-08-04T14:50:32.687Z,95159.14
2017-08-04T14:53:00.413Z,95160.13
2017-08-04T14:55:28.092Z,95166.06
2017-08-04T14:57:55.748Z,95162.42
2017-08-04T15:00:23.479Z,95143.30
2017-08-04T15:02:52.800Z,95159.14
2017-08-04T15:05:20.491Z,95160.25
2017-08-04T15:07:48.200Z,95157.36
2017-08-04T15:10:15.856Z,95161.89
2017-08-04T15:12:43.476Z,95152.91
2017-08-04T15:15:11.145Z,95153.73
2017-08-04T15:17:38.858Z,95158.28
2017-08-04T15:20:07.223Z,95151.86
2017-08-04T15:22:34.908Z,95155.70
2017-08-04T15:25:02.589Z,95148.08
2017-08-04T15:27:30.349Z,95145.25
2017-08-04T15:29:58.108Z,95150.23
2017-08-04T15:32:25.787Z,95143.80
2017-08-04T15:34:53.460Z,95149.03
2017-08-04T15:37:21.092Z,95156.95
2017-08-04T15:39:48.812Z,95158.20
2017-08-04T15:42:16.947Z,95161.05
2017-08-04T15:44:44.595Z,95154.86
2017-08-04T15:47:12.359Z,95157.25
2017-08-04T15:49:40.044Z,95156.33
2017-08-04T15:52:08.727Z,95155.46
2017-08-04T15:54:36.420Z,95161.52
2017-08-04T15:57:04.105Z,95156.73
2017-08-04T15:59:31.729Z,95152.11
2017-08-04T16:01:59.380Z,95159.56
2017-08-04T16:04:27.017Z,95154.16
2017-08-04T16:06:54.668Z,95155.83
2017-08-04T16:09:22.371Z,95147.98
2017-08-04T16:11:50.057Z,95151.42
2017-08-04T16:14:17.706Z,95158.63
2017-08-04T16:16:45.381Z,95150.52
2017-08-04T16:19:12.994Z,95145.47
2017-08-04T16:21:40.664Z,95151.16
2017-08-04T16:24:08.404Z,95148.08
2017-08-04T16:26:36.039Z,95147.07
2017-08-04T16:29:03.769Z,95135.03
2017-08-04T16:31:31.501Z,95144.77
2017-08-04T16:33:59.456Z,95145.94
2017-08-04T16:36:27.116Z,95138.94
2017-08-04T16:38:54.756Z,95139.20
2017-08-04T16:41:22.360Z,95135.75
2017-08-04T16:43:49.988Z,95143.83
2017-08-04T16:46:17.694Z,95145.66
2017-08-04T16:48:45.349Z,95152.06
2017-08-04T16:51:13.074Z,95149.63
2017-08-04T16:53:40.811Z,95148.23
2017-08-04T16:56:08.485Z,95146.64
2017-08-04T16:58:36.174Z,95154.91
2017-08-04T17:01:03.910Z,95155.30
2017-08-04T17:03:32.173Z,95158.12
2017-08-04T17:05:59.785Z,95156.70
2017-08-04T17:08:27.439Z,95162.17
2017-08-04T17:10:55.083Z,95166.31
2017-08-04T17:13:22.690Z,95166.19
2017-08-04T17:15:50.391Z,95158.92
2017-08-04T17:18:18.192Z,95163.33
2017-08-04T17:20:45.860Z,95166.73
2017-08-04T17:23:13.541Z,95161.60
2017-08-04T17:25:41.190Z,95160.36
2017-08-04T17:28:08.824Z,95167.63
2017-08-04T17:30:36.471Z,95165.67
2017-08-04T17:33:04.084Z,95168.87
2017-08-04T17:35:31.736Z,95174.34
2017-08-04T17:37:59.464Z,95179.02
2017-08-04T17:40:27.104Z,95186.30
2017-08-04T17:42:54.697Z,95186.43
2017-08-04T17:45:22.426Z,95180.78
2017-08-04T17:47:50.066Z,95187.83
2017-08-04T17:50:17.712Z,95196.53
2017-08-04T17:52:45.392Z,95192.77
2017-08-04T17:55:13.031Z,95200.39
2017-08-04T17:57:40.679Z,95207.33
2017-08-04T18:00:08.828Z,95214.03
2017-08-04T18:02:47.982Z,95209.59
2017-08-04T18:05:15.661Z,95218.33
2017-08-04T18:07:43.329Z,95215.03
2017-08-04T18:10:11.234Z,95219.91
2017-08-04T18:12:38.946Z,95227.67
2017-08-04T18:15:06.619Z,95225.81
2017-08-04T18:17:34.323Z,95227.86
2017-08-04T18:20:02.240Z,95233.34
2017-08-04T18:22:29.904Z,95240.58
2017-08-04T18:24:57.784Z,95238.93
2017-08-04T18:27:25.565Z,95243.59
2017-08-04T18:29:53.276Z,95246.56
2017-08-04T18:32:20.937Z,95243.86
2017-08-04T18:34:48.506Z,95246.19
2017-08-04T18:37:16.174Z,95253.89
2017-08-04T18:39:43.939Z,95256.08
2017-08-04T18:42:11.572Z,95263.57
2017-08-04T18:44:39.244Z,95252.53
2017-08-04T18:47:06.943Z,95259.11
2017-08-04T18:49:35.324Z,95269.79
2017-08-04T18:52:02.964Z,95256.42
2017-08-04T18:54:30.627Z,95270.13
2017-08-04T18:56:58.335Z,95253.41
2017-08-04T18:59:27.678Z,95272.52
2017-08-04T19:01:55.500Z,95272.83
2017-08-04T19:04:23.201Z,95276.27
2017-08-04T19:06:50.883Z,95274.59
2017-08-04T19:09:19.437Z,95275.37
2017-08-04T19:11:47.170Z,95280.78
2017-08-04T19:14:14.848Z,95283.17
2017-08-04T19:16:42.464Z,95276.65
2017-08-04T19:19:10.092Z,95274.61
2017-08-04T19:21:37.700Z,95275.31
2017-08-04T19:24:05.378Z,95285.61
2017-08-04T19:26:32.985Z,95283.17
2017-08-04T19:29:00.562Z,95282.40
2017-08-04T19:31:28.263Z,95281.66
2017-08-04T19:33:56.024Z,95285.48
2017-08-04T19:36:24.054Z,95289.23
2017-08-04T19:38:51.748Z,95282.53
2017-08-04T19:41:19.359Z,95286.92
2017-08-04T19:43:46.976Z,95284.52
2017-08-04T19:46:14.648Z,95289.81
2017-08-04T19:48:42.281Z,95292.10
2017-08-04T19:51:09.974Z,95290.45
2017-08-04T19:53:37.629Z,95290.59
2017-08-04T19:56:05.292Z,95297.91
2017-08-04T19:58:32.918Z,95294.70
2017-08-04T20:01:00.642Z,95294.91
2017-08-04T20:03:29.699Z,95293.41
2017-08-04T20:05:57.358Z,95294.98
2017-08-04T20:08:25.055Z,95295.58
2017-08-04T20:10:52.669Z,95296.17
2017-08-04T20:13:20.297Z,95293.04
2017-08-04T20:15:47.923Z,95290.73
2017-08-04T20:18:15.591Z,95284.29
2017-08-04T20:20:43.259Z,95288.23
2017-08-04T20:23:10.974Z,95291.55
2017-08-04T20:25:38.650Z,95287.24
2017-08-04T20:28:06.295Z,95290.36
2017-08-04T20:30:34.457Z,95294.55
2017-08-04T20:33:02.847Z,95299.94
2017-08-04T20:35:30.560Z,95296.91
2017-08-04T20:37:58.987Z,95296.39
2017-08-04T20:40:26.637Z,95298.14
2017-08-04T20:42:54.240Z,95306.69
2017-08-04T20:45:21.876Z,95304.41
2017-08-04T20:51:13.470Z,95307.22
2017-08-04T20:53:45.683Z,95306.50
2017-08-04T20:56:14.192Z,95302.76
2017-08-04T20:58:42.175Z,95297.30
2017-08-04T21:01:10.564Z,95299.91
2017-08-04T21:03:40.665Z,95301.44
2017-08-04T21:06:10.206Z,95304.41
2017-08-04T21:08:40.131Z,95300.77
2017-08-04T21:11:09.987Z,95307.91
2017-08-04T21:13:39.376Z,95303.23
2017-08-04T21:16:07.651Z,95303.86
2017-08-04T21:18:37.093Z,95298.32
2017-08-04T21:21:06.307Z,95300.58
2017-08-04T21:23:35.242Z,95300.39
2017-08-04T21:26:05.499Z,95298.06
2017-08-04T21:28:34.330Z,95297.35
2017-08-04T21:31:03.073Z,95300.85
2017-08-04T21:33:31.585Z,95295.20
2017-08-04T21:36:02.289Z,95298.80
2017-08-04T21:38:31.688Z,95292.73
2017-08-04T21:40:59.756Z,95295.45
2017-08-04T21:43:29.047Z,95292.41
2017-08-04T21:45:59.701Z,95292.08
2017-08-04T21:48:27.845Z,95291.41
2017-08-04T21:50:57.316Z,95298.80
2017-08-04T21:53:26.248Z,95293.07
2017-08-04T21:55:54.185Z,95297.39
2017-08-04T21:58:22.114Z,95295.04
2017-08-04T22:00:51.505Z,95304.34
2017-08-04T22:03:19.506Z,95292.27
2017-08-04T22:05:48.697Z,95304.13
2017-08-04T22:08:17.564Z,95306.56
2017-08-04T22:10:46.518Z,95305.39
2017-08-04T22:13:14.278Z,95313.64
2017-08-04T22:15:42.903Z,95305.13
2017-08-04T22:18:10.981Z,95299.53
2017-08-04T22:20:38.853Z,95307.92
2017-08-04T22:23:06.835Z,95289.91
2017-08-04T22:25:34.730Z,95303.22
2017-08-04T22:28:03.296Z,95295.78
2017-08-04T22:30:30.978Z,95310.30
2017-08-04T22:33:00.073Z,95303.17
2017-08-04T22:35:29.748Z,95305.59
2017-08-04T22:37:58.474Z,95305.65
2017-08-04T22:40:27.122Z,95305.44
2017-08-04T22:42:54.888Z,95304.53
2017-08-04T22:45:22.620Z,95300.53
2017-08-04T22:47:50.228Z,95300.87
2017-08-04T22:50:17.870Z,95303.14
2017-08-04T22:52:45.549Z,95304.16
2017-08-04T22:55:13.227Z,95303.88
2017-08-04T23:04:22.825Z,95308.42
2017-08-04T23:06:50.499Z,95306.00
2017-08-04T23:09:18.241Z,95303.16
2017-08-04T23:11:45.965Z,95302.72
2017-08-04T23:14:13.639Z,95309.16
2017-08-04T23:16:41.378Z,95301.34
2017-08-04T23:19:09.036Z,95310.67
2017-08-04T23:21:36.760Z,95315.62
2017-08-04T23:24:04.497Z,95320.52
2017-08-04T23:26:32.188Z,95319.64
2017-08-04T23:28:59.845Z,95318.56
2017-08-04T23:31:27.513Z,95320.75
2017-08-04T23:33:55.139Z,95322.52
2017-08-04T23:36:22.848Z,95318.08
2017-08-04T23:38:50.572Z,95315.39
2017-08-04T23:41:18.228Z,95314.09
2017-08-04T23:43:45.847Z,95312.93
2017-08-04T23:46:13.550Z,95302.69
2017-08-04T23:48:41.232Z,95306.59
2017-08-04T23:51:08.886Z,95296.20
2017-08-04T23:53:36.567Z,95300.10
2017-08-04T23:56:04.182Z,95302.98
2017-08-04T23:58:31.822Z,95301.89
